Detall de PIREP

Printer-friendly versionPDF version

[2008/11/01 18:45:00]
Flight IATA:CT3123
Pilot Number:011
Company ICAO:CAT
Aircraft Type:F28/A
PAX:85
Departing Airport: LEZG
Destination Airport: LEPA
Alternate Airport:LEBL
Online: VATSIM
Route:LEZG/30R GRAUS G23 BCN/NO300F130 W7 LORES
Flight Level:FL240
No Slew and time accel
No pause
Crash detect
Detect pilot in Cockpit between each 30 and 45 minutes
18:45 Zero fuel Weight: 60036 Lbs, Fuel Weight: 9133 Lbs
18:45 VATSIM:LEZG 011830Z 11004KT 9999 FEW030 SCT070 BKN140 12/06 Q1007
18:45 VATSIM:LEPA 011830Z 04006KT 010V070 9999 FEW020 15/13 Q1006 NOSIG
18:47 Parking Brakes off
18:59 Take-off
18:59 Take off Weight: 68708 Lbs
18:59 Wind: 113 @ 004 Knots Heading: 300
18:59 POS N41 39 54 W001 01 49
18:59 Gear Up: 179 Knots
18:59 Flaps:2 at 179 Knots
18:59 Flaps:1 at 234 Knots
18:59 Flaps:0 at 241 Knots
19:10 TOC
19:10 Fuel Weight: 7043 Lb
19:14 Wind:047@
011 Knots Heading: 085 Ground Speed: 433 Knots Altitude 24015 ft
19:27 TOD
19:27 Fuel Weight: 5564 Lb
19:29 Wind:002@012 Knots Heading: 150 Ground Speed: 448 Knots Altitude 22775 ft
19:44 Wind:053@011 Knots Heading: 167 Ground Speed: 211 Knots Altitude 4996 ft
19:48 Flaps:1 at 190 Knots
19:49 Flaps:2 at 189 Knots
19:50 Flaps:3 at 178 Knots
19:50 Flaps:4 at 180 Knots
19:50 Gear Down: 180 Knots
19:51 Flaps:5 at 158 Knots
19:52 TouchDown:Rate -191 ft/min Speed: 112 Knots
19:52 VATSIM:LEPA 011930Z 05006KT 9999 FEW020 15/12 Q1006 NOSIG
19:52 Land
19:52 Wind:052@006 Knots
19:52 Heading: 241
19:52 Flight Duration: 00:53
19:52 Landing Weight: 64310 Lbs
19:52 POS N39 32 52 E002 44 44
19:57 Parking brakes on
19:57 Block to Block Duration: 01:10
19:57 Final Fuel: 4133 Lbls
19:57 Spent Fuel: 5000 Lbls
19:57 Flight Length: 77 NM
19:57 TOD Land Leng
th: 20 NM

Exportar CSV

Powered by Drupal - Modified by Danger4k